Terminal Aerodrome Forecast
Issued by NWS Upton, NY

Home | Current Version | Previous Version | Text Only | Print | Product List | Glossary On
Versions: 1 2 3 4 5 6 7 8 9 10 11 12 13 14 15 16 17 18 19 20 21 22 23 24 25 26 27 28 29 30 31 32 33 34
000
FTUS41 KOKX 190541
TAFISP
TAF
KISP 190541Z 1906/2006 VRB03KT P6SM SKC
     FM191400 21009KT P6SM FEW250
     FM191700 21012KT P6SM FEW250
     FM192300 22008KT P6SM FEW250
     FM200400 VRB04KT P6SM SKC=

USA.gov is the U.S. government's official web portal to all federal, state and local government web resources and services.